SVA1029 OERK-OEJN
Flight info
| Callsign | SVA1029 |
|---|---|
| Flight time | 1h 30m |
| Altitude | 36000 |
| Route | UMASU G782 VEMEM |
| Aircraft | A333/H-SDE3GHIJ2J3J5M1RVWXY/LB2D1 |
Departure
| Time | 2026-04-29 07:41 |
|---|---|
| Airport | King Khalid International Airport (OERK) |
Arrival
| Time | 2026-04-29 09:11 |
|---|---|
| Airport | King Abdulaziz International Airport (OEJN) |
| Time | Latitude | Longitude | Altitude | Speed | Heading |
|---|---|---|---|---|---|
| 2026-04-29 07:16 | 24.94383 | 46.71686 | 2045 ft | 0 kts | 240° |
| 2026-04-29 07:31 | 24.94384 | 46.71689 | 2036 ft | 2 kts | 240° |
| 2026-04-29 07:31 | 24.94393 | 46.71706 | 2044 ft | 3 kts | 240° |
| 2026-04-29 07:32 | 24.94403 | 46.71725 | 2040 ft | 3 kts | 240° |
| 2026-04-29 07:32 | 24.94413 | 46.71744 | 2045 ft | 2 kts | 240° |
| 2026-04-29 07:32 | 24.94421 | 46.71759 | 2045 ft | 3 kts | 227° |
| 2026-04-29 07:32 | 24.94434 | 46.71770 | 2043 ft | 3 kts | 178° |
| 2026-04-29 07:33 | 24.94451 | 46.71764 | 2045 ft | 3 kts | 147° |
| 2026-04-29 07:33 | 24.94464 | 46.71755 | 2038 ft | 1 kts | 148° |
| 2026-04-29 07:33 | 24.94468 | 46.71753 | 2038 ft | 0 kts | 148° |
| 2026-04-29 07:35 | 24.94466 | 46.71754 | 2038 ft | 1 kts | 148° |
| 2026-04-29 07:35 | 24.94448 | 46.71766 | 2045 ft | 3 kts | 149° |
| 2026-04-29 07:35 | 24.94415 | 46.71787 | 2045 ft | 7 kts | 150° |
| 2026-04-29 07:36 | 24.94377 | 46.71826 | 2044 ft | 8 kts | 121° |
| 2026-04-29 07:36 | 24.94389 | 46.71880 | 2043 ft | 7 kts | 56° |
| 2026-04-29 07:36 | 24.94395 | 46.71923 | 2043 ft | 6 kts | 99° |
| 2026-04-29 07:36 | 24.94364 | 46.71958 | 2044 ft | 6 kts | 149° |
| 2026-04-29 07:37 | 24.94326 | 46.71983 | 2046 ft | 8 kts | 147° |
| 2026-04-29 07:37 | 24.94300 | 46.72035 | 2043 ft | 8 kts | 96° |
| 2026-04-29 07:37 | 24.94310 | 46.72076 | 2041 ft | 3 kts | 63° |
| 2026-04-29 07:37 | 24.94325 | 46.72105 | 2044 ft | 5 kts | 61° |
| 2026-04-29 07:38 | 24.94332 | 46.72119 | 2046 ft | 0 kts | 60° |
| 2026-04-29 07:39 | 24.94339 | 46.72132 | 2044 ft | 5 kts | 60° |
| 2026-04-29 07:39 | 24.94362 | 46.72175 | 2039 ft | 8 kts | 60° |
| 2026-04-29 07:39 | 24.94387 | 46.72222 | 2041 ft | 6 kts | 58° |
| 2026-04-29 07:39 | 24.94412 | 46.72251 | 2046 ft | 6 kts | 34° |
| 2026-04-29 07:40 | 24.94440 | 46.72256 | 2046 ft | 1 kts | 341° |
| 2026-04-29 07:40 | 24.94455 | 46.72245 | 2046 ft | 9 kts | 330° |
| 2026-04-29 07:40 | 24.94549 | 46.72186 | 2039 ft | 42 kts | 330° |
| 2026-04-29 07:40 | 24.95176 | 46.71790 | 2041 ft | 113 kts | 330° |
| 2026-04-29 07:41 | 24.95703 | 46.71455 | 2043 ft | 145 kts | 330° |
| 2026-04-29 07:41 | 24.96670 | 46.70837 | 2351 ft | 166 kts | 332° |
| 2026-04-29 07:41 | 24.97682 | 46.70283 | 3090 ft | 166 kts | 348° |
| 2026-04-29 07:41 | 24.98816 | 46.69828 | 3532 ft | 183 kts | 345° |
| 2026-04-29 07:42 | 25.00082 | 46.69308 | 3926 ft | 203 kts | 344° |
| 2026-04-29 07:42 | 25.01478 | 46.68734 | 4163 ft | 232 kts | 345° |
| 2026-04-29 07:42 | 25.03088 | 46.68081 | 4424 ft | 261 kts | 344° |
| 2026-04-29 07:42 | 25.04858 | 46.67368 | 4838 ft | 279 kts | 343° |
| 2026-04-29 07:43 | 25.06721 | 46.66618 | 5347 ft | 289 kts | 342° |
| 2026-04-29 07:43 | 25.08589 | 46.65737 | 5982 ft | 296 kts | 326° |
| 2026-04-29 07:43 | 25.09960 | 46.64061 | 6600 ft | 297 kts | 292° |
| 2026-04-29 07:43 | 25.10345 | 46.61879 | 7293 ft | 288 kts | 259° |
| 2026-04-29 07:44 | 25.09739 | 46.59836 | 8155 ft | 278 kts | 240° |
| 2026-04-29 07:44 | 25.08927 | 46.57916 | 9072 ft | 276 kts | 243° |
| 2026-04-29 07:44 | 25.08206 | 46.55953 | 9919 ft | 276 kts | 243° |
| 2026-04-29 07:44 | 25.07279 | 46.54068 | 10440 ft | 287 kts | 236° |
| 2026-04-29 07:45 | 25.06152 | 46.52170 | 10733 ft | 305 kts | 235° |
| 2026-04-29 07:45 | 25.04959 | 46.50158 | 11117 ft | 320 kts | 236° |
| 2026-04-29 07:45 | 25.03750 | 46.48067 | 11690 ft | 326 kts | 236° |
| 2026-04-29 07:45 | 25.02543 | 46.45940 | 12432 ft | 327 kts | 237° |
| 2026-04-29 07:46 | 25.01344 | 46.43805 | 13225 ft | 328 kts | 237° |
| 2026-04-29 07:46 | 25.00145 | 46.41660 | 13980 ft | 329 kts | 237° |
| 2026-04-29 07:46 | 24.98916 | 46.39528 | 14650 ft | 330 kts | 236° |
| 2026-04-29 07:46 | 24.97659 | 46.37403 | 15300 ft | 333 kts | 236° |
| 2026-04-29 07:47 | 24.96386 | 46.35263 | 15949 ft | 335 kts | 237° |
| 2026-04-29 07:47 | 24.95105 | 46.33110 | 16599 ft | 337 kts | 237° |
| 2026-04-29 07:47 | 24.93817 | 46.30944 | 17268 ft | 339 kts | 237° |
| 2026-04-29 07:47 | 24.92522 | 46.28768 | 17925 ft | 341 kts | 237° |
| 2026-04-29 07:48 | 24.91216 | 46.26575 | 18527 ft | 343 kts | 237° |
| 2026-04-29 07:48 | 24.89903 | 46.24371 | 19079 ft | 346 kts | 237° |
| 2026-04-29 07:48 | 24.88579 | 46.22150 | 19618 ft | 348 kts | 237° |
| 2026-04-29 07:48 | 24.87246 | 46.19915 | 20168 ft | 350 kts | 237° |
| 2026-04-29 07:49 | 24.85817 | 46.17732 | 20685 ft | 354 kts | 231° |
| 2026-04-29 07:49 | 24.84062 | 46.15864 | 21191 ft | 359 kts | 221° |
| 2026-04-29 07:49 | 24.82038 | 46.14164 | 21670 ft | 363 kts | 219° |
| 2026-04-29 07:49 | 24.80017 | 46.12547 | 22194 ft | 365 kts | 219° |
| 2026-04-29 07:50 | 24.77951 | 46.10902 | 22719 ft | 367 kts | 219° |
| 2026-04-29 07:50 | 24.75876 | 46.09244 | 23211 ft | 370 kts | 219° |
| 2026-04-29 07:50 | 24.73785 | 46.07570 | 23618 ft | 373 kts | 219° |
| 2026-04-29 07:50 | 24.71680 | 46.05881 | 23991 ft | 376 kts | 219° |
| 2026-04-29 07:51 | 24.69582 | 46.04155 | 24397 ft | 377 kts | 222° |
| 2026-04-29 07:51 | 24.67668 | 46.02198 | 24789 ft | 376 kts | 230° |
| 2026-04-29 07:51 | 24.66073 | 45.99926 | 25183 ft | 376 kts | 238° |
| 2026-04-29 07:51 | 24.64687 | 45.97485 | 25573 ft | 377 kts | 240° |
| 2026-04-29 07:52 | 24.63339 | 45.95003 | 25943 ft | 379 kts | 240° |
| 2026-04-29 07:52 | 24.61990 | 45.92512 | 26324 ft | 380 kts | 240° |
| 2026-04-29 07:52 | 24.60632 | 45.90012 | 26704 ft | 382 kts | 240° |
| 2026-04-29 07:52 | 24.59262 | 45.87500 | 27054 ft | 384 kts | 240° |
| 2026-04-29 07:53 | 24.57883 | 45.84976 | 27379 ft | 386 kts | 240° |
| 2026-04-29 07:53 | 24.56496 | 45.82443 | 27742 ft | 388 kts | 240° |
| 2026-04-29 07:53 | 24.55101 | 45.79896 | 28094 ft | 390 kts | 240° |
| 2026-04-29 07:53 | 24.53701 | 45.77342 | 28413 ft | 392 kts | 240° |
| 2026-04-29 07:54 | 24.52292 | 45.74773 | 28743 ft | 394 kts | 240° |
| 2026-04-29 07:54 | 24.50871 | 45.72185 | 29045 ft | 396 kts | 240° |
| 2026-04-29 07:54 | 24.49447 | 45.69594 | 29368 ft | 398 kts | 240° |
| 2026-04-29 07:54 | 24.48013 | 45.66985 | 29684 ft | 400 kts | 240° |
| 2026-04-29 07:55 | 24.46574 | 45.64370 | 29968 ft | 401 kts | 240° |
| 2026-04-29 07:55 | 24.45118 | 45.61750 | 30209 ft | 403 kts | 239° |
| 2026-04-29 07:55 | 24.43619 | 45.59137 | 30441 ft | 405 kts | 239° |
| 2026-04-29 07:55 | 24.42104 | 45.56519 | 30677 ft | 407 kts | 239° |
| 2026-04-29 07:56 | 24.40579 | 45.53889 | 30895 ft | 410 kts | 239° |
| 2026-04-29 07:56 | 24.39048 | 45.51248 | 31133 ft | 411 kts | 239° |
| 2026-04-29 07:56 | 24.37509 | 45.48594 | 31386 ft | 413 kts | 239° |
| 2026-04-29 07:56 | 24.35967 | 45.45935 | 31641 ft | 414 kts | 239° |
| 2026-04-29 07:57 | 24.34417 | 45.43263 | 31882 ft | 415 kts | 239° |
| 2026-04-29 07:57 | 24.32866 | 45.40592 | 32231 ft | 414 kts | 239° |
| 2026-04-29 07:57 | 24.31322 | 45.37933 | 32599 ft | 413 kts | 239° |
| 2026-04-29 07:57 | 24.29784 | 45.35287 | 32938 ft | 412 kts | 239° |
| 2026-04-29 07:58 | 24.28245 | 45.32641 | 33279 ft | 411 kts | 239° |
| 2026-04-29 07:58 | 24.26713 | 45.30006 | 33631 ft | 410 kts | 239° |
| 2026-04-29 07:58 | 24.25184 | 45.27381 | 33965 ft | 408 kts | 239° |
| 2026-04-29 07:58 | 24.23657 | 45.24757 | 34246 ft | 408 kts | 239° |
| 2026-04-29 07:59 | 24.22131 | 45.22139 | 34510 ft | 408 kts | 239° |
| 2026-04-29 07:59 | 24.20604 | 45.19520 | 34768 ft | 407 kts | 239° |
| 2026-04-29 07:59 | 24.19081 | 45.16908 | 35005 ft | 408 kts | 239° |
| 2026-04-29 07:59 | 24.17553 | 45.14288 | 35214 ft | 408 kts | 239° |
| 2026-04-29 08:00 | 24.16111 | 45.11603 | 35396 ft | 410 kts | 242° |
| 2026-04-29 08:00 | 24.14791 | 45.08842 | 35637 ft | 410 kts | 243° |
| 2026-04-29 08:00 | 24.13516 | 45.06050 | 35842 ft | 409 kts | 244° |
| 2026-04-29 08:00 | 24.12282 | 45.03287 | 35876 ft | 399 kts | 244° |
| 2026-04-29 08:01 | 24.09893 | 44.97907 | 35885 ft | 390 kts | 244° |
| 2026-04-29 08:01 | 24.07508 | 44.92579 | 35881 ft | 390 kts | 244° |
| 2026-04-29 08:02 | 24.05107 | 44.87255 | 35881 ft | 390 kts | 244° |
| 2026-04-29 08:02 | 24.02701 | 44.81940 | 35881 ft | 390 kts | 244° |
| 2026-04-29 08:03 | 24.00292 | 44.76625 | 35884 ft | 390 kts | 244° |
| 2026-04-29 08:03 | 23.97881 | 44.71308 | 35879 ft | 391 kts | 244° |
| 2026-04-29 08:04 | 23.95459 | 44.65973 | 35889 ft | 392 kts | 244° |
| 2026-04-29 08:04 | 23.93102 | 44.60593 | 35895 ft | 393 kts | 248° |
| 2026-04-29 08:05 | 23.91556 | 44.54877 | 35887 ft | 393 kts | 254° |
| 2026-04-29 08:05 | 23.90290 | 44.49071 | 35889 ft | 393 kts | 255° |
| 2026-04-29 08:06 | 23.89076 | 44.43251 | 35887 ft | 393 kts | 255° |
| 2026-04-29 08:06 | 23.87852 | 44.37437 | 35888 ft | 393 kts | 255° |
| 2026-04-29 08:07 | 23.86612 | 44.31618 | 35884 ft | 393 kts | 255° |
| 2026-04-29 08:07 | 23.85365 | 44.25802 | 35887 ft | 393 kts | 255° |
| 2026-04-29 08:08 | 23.84114 | 44.19982 | 35896 ft | 393 kts | 255° |
| 2026-04-29 08:08 | 23.82865 | 44.14181 | 35886 ft | 392 kts | 255° |
| 2026-04-29 08:09 | 23.81617 | 44.08391 | 35889 ft | 392 kts | 255° |
| 2026-04-29 08:09 | 23.80366 | 44.02600 | 35899 ft | 392 kts | 255° |
| 2026-04-29 08:10 | 23.79112 | 43.96807 | 35888 ft | 392 kts | 255° |
| 2026-04-29 08:10 | 23.77854 | 43.91008 | 35893 ft | 393 kts | 255° |
| 2026-04-29 08:11 | 23.76591 | 43.85209 | 35886 ft | 393 kts | 255° |
| 2026-04-29 08:11 | 23.75319 | 43.79410 | 35893 ft | 392 kts | 255° |
| 2026-04-29 08:12 | 23.74047 | 43.73624 | 35894 ft | 392 kts | 255° |
| 2026-04-29 08:12 | 23.72776 | 43.67847 | 35892 ft | 391 kts | 255° |
| 2026-04-29 08:13 | 23.71504 | 43.62073 | 35906 ft | 392 kts | 255° |
| 2026-04-29 08:13 | 23.70228 | 43.56297 | 35898 ft | 392 kts | 255° |
| 2026-04-29 08:14 | 23.68946 | 43.50501 | 35898 ft | 393 kts | 255° |
| 2026-04-29 08:14 | 23.67660 | 43.44700 | 35898 ft | 394 kts | 255° |
| 2026-04-29 08:15 | 23.66380 | 43.38935 | 35903 ft | 393 kts | 255° |
| 2026-04-29 08:15 | 23.65091 | 43.33143 | 35902 ft | 393 kts | 255° |
| 2026-04-29 08:16 | 23.63802 | 43.27358 | 35903 ft | 392 kts | 255° |
| 2026-04-29 08:16 | 23.62502 | 43.21538 | 35915 ft | 392 kts | 255° |
| 2026-04-29 08:17 | 23.61219 | 43.15803 | 35904 ft | 392 kts | 255° |
| 2026-04-29 08:17 | 23.59923 | 43.10022 | 35907 ft | 393 kts | 255° |
| 2026-04-29 08:18 | 23.58623 | 43.04234 | 35908 ft | 393 kts | 255° |
| 2026-04-29 08:18 | 23.57313 | 42.98409 | 35909 ft | 393 kts | 255° |
| 2026-04-29 08:19 | 23.56021 | 42.92677 | 35907 ft | 392 kts | 255° |
| 2026-04-29 08:19 | 23.54721 | 42.86918 | 35909 ft | 391 kts | 255° |
| 2026-04-29 08:20 | 23.53409 | 42.81118 | 35908 ft | 391 kts | 255° |
| 2026-04-29 08:20 | 23.52112 | 42.75397 | 35908 ft | 391 kts | 255° |
| 2026-04-29 08:21 | 23.50806 | 42.69644 | 35909 ft | 392 kts | 255° |
| 2026-04-29 08:21 | 23.49497 | 42.63885 | 35909 ft | 392 kts | 255° |
| 2026-04-29 08:22 | 23.48186 | 42.58126 | 35911 ft | 391 kts | 255° |
| 2026-04-29 08:22 | 23.46877 | 42.52387 | 35908 ft | 390 kts | 255° |
| 2026-04-29 08:23 | 23.45566 | 42.46652 | 35906 ft | 390 kts | 255° |
| 2026-04-29 08:23 | 23.44253 | 42.40918 | 35906 ft | 390 kts | 255° |
| 2026-04-29 08:24 | 23.42940 | 42.35192 | 35897 ft | 389 kts | 255° |
| 2026-04-29 08:24 | 23.41840 | 42.30404 | 35905 ft | 389 kts | 255° |
| 2026-04-29 08:25 | 23.40309 | 42.23753 | 35909 ft | 390 kts | 255° |
| 2026-04-29 08:25 | 23.39204 | 42.18960 | 35913 ft | 390 kts | 255° |
| 2026-04-29 08:26 | 23.37885 | 42.13247 | 35902 ft | 388 kts | 255° |
| 2026-04-29 08:26 | 23.36568 | 42.07556 | 35903 ft | 388 kts | 255° |
| 2026-04-29 08:27 | 23.35258 | 42.01903 | 35905 ft | 388 kts | 255° |
| 2026-04-29 08:27 | 23.33937 | 41.96213 | 35909 ft | 388 kts | 255° |
| 2026-04-29 08:28 | 23.32618 | 41.90539 | 35904 ft | 387 kts | 255° |
| 2026-04-29 08:28 | 23.31294 | 41.84859 | 35911 ft | 388 kts | 255° |
| 2026-04-29 08:29 | 23.29967 | 41.79172 | 35908 ft | 388 kts | 255° |
| 2026-04-29 08:29 | 23.28541 | 41.73522 | 35911 ft | 387 kts | 250° |
| 2026-04-29 08:30 | 23.24719 | 41.65811 | 35914 ft | 387 kts | 240° |
| 2026-04-29 08:31 | 23.21801 | 41.60880 | 35914 ft | 388 kts | 239° |
| 2026-04-29 08:31 | 23.18847 | 41.55946 | 35782 ft | 396 kts | 239° |
| 2026-04-29 08:31 | 23.17330 | 41.53398 | 35542 ft | 406 kts | 239° |
| 2026-04-29 08:32 | 23.15792 | 41.50808 | 35325 ft | 408 kts | 239° |
| 2026-04-29 08:32 | 23.14255 | 41.48217 | 35103 ft | 407 kts | 239° |
| 2026-04-29 08:32 | 23.12721 | 41.45631 | 34867 ft | 407 kts | 239° |
| 2026-04-29 08:32 | 23.11189 | 41.43047 | 34642 ft | 407 kts | 239° |
| 2026-04-29 08:33 | 23.09657 | 41.40463 | 34423 ft | 407 kts | 239° |
| 2026-04-29 08:33 | 23.08126 | 41.37882 | 34198 ft | 407 kts | 239° |
| 2026-04-29 08:33 | 23.06594 | 41.35302 | 33976 ft | 407 kts | 239° |
| 2026-04-29 08:33 | 23.05060 | 41.32719 | 33726 ft | 407 kts | 239° |
| 2026-04-29 08:34 | 23.03528 | 41.30140 | 33473 ft | 407 kts | 239° |
| 2026-04-29 08:34 | 23.01991 | 41.27554 | 33219 ft | 408 kts | 239° |
| 2026-04-29 08:34 | 23.00446 | 41.24956 | 32972 ft | 409 kts | 239° |
| 2026-04-29 08:34 | 22.98899 | 41.22355 | 32725 ft | 410 kts | 239° |
| 2026-04-29 08:35 | 22.97351 | 41.19755 | 32491 ft | 411 kts | 239° |
| 2026-04-29 08:35 | 22.95800 | 41.17151 | 32246 ft | 411 kts | 239° |
| 2026-04-29 08:35 | 22.94245 | 41.14543 | 32015 ft | 412 kts | 239° |
| 2026-04-29 08:35 | 22.92690 | 41.11935 | 31775 ft | 412 kts | 239° |
| 2026-04-29 08:36 | 22.91131 | 41.09323 | 31536 ft | 411 kts | 239° |
| 2026-04-29 08:36 | 22.89582 | 41.06728 | 31301 ft | 409 kts | 239° |
| 2026-04-29 08:36 | 22.88039 | 41.04145 | 31045 ft | 408 kts | 239° |
| 2026-04-29 08:36 | 22.86495 | 41.01562 | 30806 ft | 408 kts | 239° |
| 2026-04-29 08:37 | 22.84953 | 40.98983 | 30570 ft | 407 kts | 239° |
| 2026-04-29 08:37 | 22.83415 | 40.96414 | 30369 ft | 406 kts | 239° |
| 2026-04-29 08:37 | 22.81882 | 40.93853 | 30137 ft | 404 kts | 239° |
| 2026-04-29 08:37 | 22.80352 | 40.91301 | 29894 ft | 403 kts | 239° |
| 2026-04-29 08:38 | 22.78830 | 40.88762 | 29645 ft | 401 kts | 239° |
| 2026-04-29 08:38 | 22.77314 | 40.86236 | 29376 ft | 398 kts | 239° |
| 2026-04-29 08:38 | 22.75808 | 40.83726 | 29116 ft | 396 kts | 239° |
| 2026-04-29 08:38 | 22.74309 | 40.81228 | 28857 ft | 395 kts | 239° |
| 2026-04-29 08:39 | 22.72814 | 40.78738 | 28572 ft | 394 kts | 239° |
| 2026-04-29 08:39 | 22.71320 | 40.76252 | 28322 ft | 394 kts | 239° |
| 2026-04-29 08:39 | 22.69823 | 40.73762 | 28063 ft | 394 kts | 239° |
| 2026-04-29 08:39 | 22.68329 | 40.71278 | 27811 ft | 393 kts | 239° |
| 2026-04-29 08:40 | 22.66839 | 40.68802 | 27558 ft | 392 kts | 239° |
| 2026-04-29 08:40 | 22.65351 | 40.66330 | 27307 ft | 391 kts | 239° |
| 2026-04-29 08:40 | 22.63868 | 40.63868 | 27076 ft | 390 kts | 239° |
| 2026-04-29 08:40 | 22.62387 | 40.61411 | 26754 ft | 389 kts | 239° |
| 2026-04-29 08:41 | 22.60910 | 40.58962 | 26353 ft | 388 kts | 239° |
| 2026-04-29 08:41 | 22.59456 | 40.56551 | 25958 ft | 386 kts | 239° |
| 2026-04-29 08:41 | 22.57992 | 40.54125 | 25572 ft | 384 kts | 238° |
| 2026-04-29 08:41 | 22.56533 | 40.51709 | 25165 ft | 383 kts | 238° |
| 2026-04-29 08:42 | 22.55081 | 40.49304 | 24781 ft | 382 kts | 238° |
| 2026-04-29 08:42 | 22.53629 | 40.46901 | 24421 ft | 381 kts | 239° |
| 2026-04-29 08:42 | 22.52179 | 40.44503 | 24048 ft | 380 kts | 239° |
| 2026-04-29 08:42 | 22.50738 | 40.42120 | 23681 ft | 378 kts | 239° |
| 2026-04-29 08:43 | 22.49299 | 40.39743 | 23268 ft | 377 kts | 239° |
| 2026-04-29 08:43 | 22.47867 | 40.37377 | 22822 ft | 375 kts | 238° |
| 2026-04-29 08:43 | 22.46443 | 40.35026 | 22388 ft | 373 kts | 238° |
| 2026-04-29 08:43 | 22.45027 | 40.32689 | 21956 ft | 370 kts | 238° |
| 2026-04-29 08:44 | 22.43621 | 40.30369 | 21539 ft | 368 kts | 238° |
| 2026-04-29 08:44 | 22.42224 | 40.28065 | 21129 ft | 365 kts | 238° |
| 2026-04-29 08:44 | 22.40835 | 40.25777 | 20715 ft | 363 kts | 238° |
| 2026-04-29 08:44 | 22.39456 | 40.23505 | 20299 ft | 361 kts | 238° |
| 2026-04-29 08:45 | 22.38081 | 40.21241 | 19899 ft | 360 kts | 238° |
| 2026-04-29 08:45 | 22.36713 | 40.18988 | 19510 ft | 358 kts | 238° |
| 2026-04-29 08:45 | 22.35347 | 40.16740 | 19118 ft | 357 kts | 238° |
| 2026-04-29 08:45 | 22.33989 | 40.14506 | 18721 ft | 355 kts | 238° |
| 2026-04-29 08:46 | 22.32642 | 40.12291 | 18358 ft | 350 kts | 238° |
| 2026-04-29 08:46 | 22.31312 | 40.10107 | 17943 ft | 346 kts | 237° |
| 2026-04-29 08:46 | 22.30000 | 40.07951 | 17499 ft | 341 kts | 237° |
| 2026-04-29 08:46 | 22.28687 | 40.05796 | 17093 ft | 338 kts | 237° |
| 2026-04-29 08:47 | 22.27409 | 40.03697 | 16957 ft | 341 kts | 237° |
| 2026-04-29 08:47 | 22.26121 | 40.01583 | 16923 ft | 330 kts | 237° |
| 2026-04-29 08:47 | 22.24889 | 39.99565 | 16926 ft | 314 kts | 237° |
| 2026-04-29 08:47 | 22.23717 | 39.97646 | 16943 ft | 299 kts | 237° |
| 2026-04-29 08:48 | 22.22587 | 39.95794 | 16927 ft | 294 kts | 238° |
| 2026-04-29 08:48 | 22.21465 | 39.93954 | 16930 ft | 294 kts | 238° |
| 2026-04-29 08:48 | 22.20339 | 39.92111 | 16933 ft | 294 kts | 238° |
| 2026-04-29 08:48 | 22.19213 | 39.90265 | 16934 ft | 295 kts | 238° |
| 2026-04-29 08:49 | 22.18086 | 39.88420 | 16931 ft | 294 kts | 238° |
| 2026-04-29 08:49 | 22.16958 | 39.86575 | 16937 ft | 295 kts | 238° |
| 2026-04-29 08:49 | 22.15829 | 39.84728 | 16861 ft | 295 kts | 238° |
| 2026-04-29 08:49 | 22.14700 | 39.82883 | 16665 ft | 294 kts | 238° |
| 2026-04-29 08:50 | 22.13574 | 39.81043 | 16421 ft | 294 kts | 237° |
| 2026-04-29 08:50 | 22.12451 | 39.79210 | 16181 ft | 292 kts | 238° |
| 2026-04-29 08:50 | 22.11334 | 39.77386 | 15934 ft | 291 kts | 237° |
| 2026-04-29 08:50 | 22.10221 | 39.75570 | 15693 ft | 289 kts | 237° |
| 2026-04-29 08:51 | 22.09116 | 39.73767 | 15446 ft | 288 kts | 237° |
| 2026-04-29 08:51 | 22.08013 | 39.71966 | 15208 ft | 287 kts | 237° |
| 2026-04-29 08:51 | 22.06915 | 39.70176 | 14988 ft | 286 kts | 237° |
| 2026-04-29 08:51 | 22.05822 | 39.68393 | 14943 ft | 285 kts | 237° |
| 2026-04-29 08:52 | 22.04728 | 39.66611 | 14977 ft | 285 kts | 237° |
| 2026-04-29 08:52 | 22.03634 | 39.64829 | 14980 ft | 285 kts | 237° |
| 2026-04-29 08:52 | 22.02538 | 39.63046 | 14978 ft | 286 kts | 237° |
| 2026-04-29 08:52 | 22.01441 | 39.61259 | 14976 ft | 286 kts | 237° |
| 2026-04-29 08:53 | 22.00346 | 39.59477 | 14974 ft | 285 kts | 237° |
| 2026-04-29 08:53 | 21.99250 | 39.57696 | 14978 ft | 285 kts | 237° |
| 2026-04-29 08:53 | 21.98155 | 39.55915 | 14830 ft | 286 kts | 237° |
| 2026-04-29 08:53 | 21.97049 | 39.54115 | 14356 ft | 288 kts | 237° |
| 2026-04-29 08:54 | 21.95942 | 39.52316 | 13982 ft | 288 kts | 237° |
| 2026-04-29 08:54 | 21.94841 | 39.50522 | 13588 ft | 287 kts | 237° |
| 2026-04-29 08:54 | 21.93864 | 39.48653 | 13154 ft | 286 kts | 243° |
| 2026-04-29 08:54 | 21.92987 | 39.46729 | 12717 ft | 286 kts | 244° |
| 2026-04-29 08:55 | 21.92131 | 39.44799 | 12291 ft | 285 kts | 244° |
| 2026-04-29 08:55 | 21.91277 | 39.42874 | 11873 ft | 285 kts | 244° |
| 2026-04-29 08:55 | 21.90424 | 39.40952 | 11464 ft | 284 kts | 244° |
| 2026-04-29 08:55 | 21.89570 | 39.39033 | 11058 ft | 284 kts | 245° |
| 2026-04-29 08:56 | 21.88716 | 39.37117 | 10652 ft | 284 kts | 245° |
| 2026-04-29 08:56 | 21.87862 | 39.35202 | 10254 ft | 284 kts | 245° |
| 2026-04-29 08:56 | 21.87010 | 39.33292 | 9870 ft | 284 kts | 245° |
| 2026-04-29 08:56 | 21.86154 | 39.31375 | 9447 ft | 284 kts | 245° |
| 2026-04-29 08:57 | 21.85300 | 39.29464 | 9082 ft | 282 kts | 245° |
| 2026-04-29 08:57 | 21.84468 | 39.27601 | 8879 ft | 269 kts | 245° |
| 2026-04-29 08:57 | 21.83683 | 39.25846 | 8674 ft | 251 kts | 245° |
| 2026-04-29 08:57 | 21.82912 | 39.24265 | 8460 ft | 234 kts | 237° |
| 2026-04-29 08:58 | 21.81781 | 39.23061 | 7997 ft | 230 kts | 212° |
| 2026-04-29 08:58 | 21.80255 | 39.22590 | 7457 ft | 233 kts | 183° |
| 2026-04-29 08:58 | 21.78660 | 39.22918 | 6990 ft | 234 kts | 165° |
| 2026-04-29 08:58 | 21.77137 | 39.23511 | 6509 ft | 232 kts | 162° |
| 2026-04-29 08:59 | 21.75640 | 39.24130 | 6016 ft | 229 kts | 163° |
| 2026-04-29 08:59 | 21.74153 | 39.24738 | 5559 ft | 230 kts | 163° |
| 2026-04-29 08:59 | 21.72644 | 39.25345 | 5322 ft | 233 kts | 163° |
| 2026-04-29 08:59 | 21.71123 | 39.25950 | 5080 ft | 234 kts | 163° |
| 2026-04-29 09:00 | 21.69590 | 39.26557 | 4880 ft | 235 kts | 163° |
| 2026-04-29 09:00 | 21.68053 | 39.27166 | 4751 ft | 236 kts | 163° |
| 2026-04-29 09:00 | 21.66507 | 39.27776 | 4646 ft | 238 kts | 163° |
| 2026-04-29 09:00 | 21.64943 | 39.28392 | 4522 ft | 240 kts | 163° |
| 2026-04-29 09:01 | 21.63375 | 39.29009 | 4396 ft | 240 kts | 163° |
| 2026-04-29 09:01 | 21.61803 | 39.29627 | 4270 ft | 241 kts | 163° |
| 2026-04-29 09:01 | 21.60224 | 39.30250 | 4139 ft | 243 kts | 162° |
| 2026-04-29 09:01 | 21.58633 | 39.30876 | 4033 ft | 244 kts | 162° |
| 2026-04-29 09:02 | 21.57047 | 39.31500 | 3848 ft | 241 kts | 161° |
| 2026-04-29 09:02 | 21.55478 | 39.32117 | 3562 ft | 240 kts | 160° |
| 2026-04-29 09:02 | 21.53907 | 39.32735 | 3232 ft | 242 kts | 160° |
| 2026-04-29 09:02 | 21.52322 | 39.33356 | 3021 ft | 241 kts | 159° |
| 2026-04-29 09:03 | 21.50753 | 39.33973 | 2978 ft | 240 kts | 159° |
| 2026-04-29 09:03 | 21.49183 | 39.34592 | 2989 ft | 242 kts | 159° |
| 2026-04-29 09:03 | 21.47598 | 39.35214 | 2974 ft | 243 kts | 159° |
| 2026-04-29 09:03 | 21.46006 | 39.35839 | 2972 ft | 245 kts | 160° |
| 2026-04-29 09:04 | 21.44372 | 39.36353 | 2962 ft | 245 kts | 177° |
| 2026-04-29 09:04 | 21.42769 | 39.35929 | 2985 ft | 237 kts | 218° |
| 2026-04-29 09:04 | 21.41817 | 39.34600 | 2967 ft | 222 kts | 258° |
| 2026-04-29 09:04 | 21.41738 | 39.32986 | 2996 ft | 218 kts | 276° |
| 2026-04-29 09:05 | 21.41656 | 39.31344 | 2973 ft | 221 kts | 270° |
| 2026-04-29 09:05 | 21.41716 | 39.29712 | 2978 ft | 218 kts | 285° |
| 2026-04-29 09:05 | 21.42418 | 39.28336 | 2999 ft | 209 kts | 315° |
| 2026-04-29 09:05 | 21.43527 | 39.27355 | 2968 ft | 206 kts | 330° |
| 2026-04-29 09:06 | 21.44801 | 39.26674 | 2970 ft | 204 kts | 339° |
| 2026-04-29 09:06 | 21.46127 | 39.26140 | 2985 ft | 205 kts | 341° |
| 2026-04-29 09:06 | 21.47478 | 39.25617 | 2965 ft | 207 kts | 341° |
| 2026-04-29 09:06 | 21.48832 | 39.25091 | 2990 ft | 208 kts | 340° |
| 2026-04-29 09:07 | 21.50198 | 39.24555 | 3003 ft | 209 kts | 341° |
| 2026-04-29 09:07 | 21.51560 | 39.24015 | 2996 ft | 208 kts | 341° |
| 2026-04-29 09:07 | 21.52915 | 39.23479 | 2857 ft | 207 kts | 340° |
| 2026-04-29 09:07 | 21.54258 | 39.22945 | 2593 ft | 204 kts | 340° |
| 2026-04-29 09:08 | 21.55559 | 39.22432 | 2313 ft | 193 kts | 340° |
| 2026-04-29 09:08 | 21.56769 | 39.21956 | 2043 ft | 178 kts | 340° |
| 2026-04-29 09:08 | 21.57512 | 39.21663 | 1901 ft | 165 kts | 340° |
| 2026-04-29 09:08 | 21.58531 | 39.21260 | 1679 ft | 147 kts | 340° |
| 2026-04-29 09:09 | 21.59728 | 39.20788 | 1450 ft | 131 kts | 339° |
| 2026-04-29 09:09 | 21.60303 | 39.20560 | 1352 ft | 130 kts | 339° |
| 2026-04-29 09:09 | 21.61421 | 39.20104 | 1087 ft | 130 kts | 339° |
| 2026-04-29 09:09 | 21.62271 | 39.19762 | 941 ft | 131 kts | 341° |
| 2026-04-29 09:10 | 21.63135 | 39.19453 | 721 ft | 131 kts | 340° |
| 2026-04-29 09:10 | 21.63707 | 39.19220 | 560 ft | 129 kts | 338° |
| 2026-04-29 09:10 | 21.64539 | 39.18880 | 425 ft | 131 kts | 340° |
| 2026-04-29 09:10 | 21.65707 | 39.18418 | 272 ft | 137 kts | 341° |
| 2026-04-29 09:11 | 21.66299 | 39.18179 | 155 ft | 132 kts | 341° |
| 2026-04-29 09:11 | 21.67141 | 39.17852 | 41 ft | 122 kts | 340° |
| 2026-04-29 09:11 | 21.67728 | 39.17624 | 38 ft | 50 kts | 340° |
| 2026-04-29 09:11 | 21.68023 | 39.17509 | 35 ft | 42 kts | 340° |
| 2026-04-29 09:12 | 21.68273 | 39.17392 | 30 ft | 35 kts | 323° |
| 2026-04-29 09:12 | 21.68405 | 39.17223 | 27 ft | 26 kts | 304° |
| 2026-04-29 09:12 | 21.68384 | 39.17132 | 29 ft | 8 kts | 183° |
| 2026-04-29 09:12 | 21.68340 | 39.17147 | 29 ft | 7 kts | 160° |
| 2026-04-29 09:13 | 21.68288 | 39.17167 | 29 ft | 9 kts | 160° |
| 2026-04-29 09:13 | 21.68232 | 39.17190 | 31 ft | 9 kts | 159° |
| 2026-04-29 09:13 | 21.68179 | 39.17211 | 33 ft | 8 kts | 159° |
| 2026-04-29 09:13 | 21.68130 | 39.17230 | 34 ft | 7 kts | 159° |
| 2026-04-29 09:14 | 21.68083 | 39.17249 | 36 ft | 7 kts | 159° |
| 2026-04-29 09:14 | 21.68033 | 39.17269 | 36 ft | 8 kts | 160° |
| 2026-04-29 09:14 | 21.67973 | 39.17293 | 36 ft | 10 kts | 160° |
| 2026-04-29 09:14 | 21.67901 | 39.17321 | 37 ft | 11 kts | 160° |
| 2026-04-29 09:15 | 21.67826 | 39.17350 | 39 ft | 12 kts | 160° |
| 2026-04-29 09:15 | 21.67749 | 39.17379 | 40 ft | 12 kts | 160° |
| 2026-04-29 09:15 | 21.67661 | 39.17413 | 39 ft | 14 kts | 160° |
| 2026-04-29 09:15 | 21.67561 | 39.17453 | 39 ft | 16 kts | 159° |
| 2026-04-29 09:16 | 21.67456 | 39.17496 | 41 ft | 17 kts | 159° |
| 2026-04-29 09:16 | 21.67344 | 39.17542 | 39 ft | 18 kts | 159° |
| 2026-04-29 09:16 | 21.67235 | 39.17540 | 36 ft | 16 kts | 237° |
| 2026-04-29 09:16 | 21.67200 | 39.17450 | 35 ft | 13 kts | 246° |
| 2026-04-29 09:17 | 21.67140 | 39.17366 | 35 ft | 15 kts | 225° |
| 2026-04-29 09:17 | 21.67058 | 39.17295 | 36 ft | 16 kts | 212° |
| 2026-04-29 09:17 | 21.66950 | 39.17266 | 34 ft | 15 kts | 185° |
| 2026-04-29 09:17 | 21.66850 | 39.17280 | 36 ft | 15 kts | 163° |
| 2026-04-29 09:18 | 21.66750 | 39.17317 | 37 ft | 16 kts | 159° |
| 2026-04-29 09:18 | 21.66647 | 39.17361 | 38 ft | 15 kts | 159° |
| 2026-04-29 09:18 | 21.66554 | 39.17400 | 38 ft | 16 kts | 151° |
| 2026-04-29 09:18 | 21.66486 | 39.17484 | 41 ft | 14 kts | 115° |
| 2026-04-29 09:19 | 21.66461 | 39.17570 | 41 ft | 10 kts | 103° |
| 2026-04-29 09:19 | 21.66425 | 39.17614 | 40 ft | 8 kts | 163° |
| 2026-04-29 09:19 | 21.66398 | 39.17607 | 41 ft | 4 kts | 198° |
| 2026-04-29 09:19 | 21.66369 | 39.17597 | 41 ft | 5 kts | 196° |
| 2026-04-29 09:20 | 21.66354 | 39.17593 | 42 ft | 0 kts | 195° |